createdAt,value
2019-01-21T00:00:51.962Z,1014.63
2019-01-21T00:01:51.512Z,1014.66
2019-01-21T00:02:51.480Z,1014.63
2019-01-21T00:03:51.440Z,1014.68
2019-01-21T00:04:51.424Z,1014.66
2019-01-21T00:05:51.373Z,1014.65
2019-01-21T00:06:51.343Z,1014.65
2019-01-21T00:07:51.313Z,1014.68
2019-01-21T00:08:51.281Z,1014.70
2019-01-21T00:09:51.243Z,1014.69
2019-01-21T00:10:51.238Z,1014.67
2019-01-21T00:11:51.220Z,1014.61
2019-01-21T00:12:51.199Z,1014.70
2019-01-21T00:13:51.106Z,1014.68
2019-01-21T00:14:51.088Z,1014.66
2019-01-21T00:15:51.103Z,1014.63
2019-01-21T00:16:51.005Z,1014.67
2019-01-21T00:17:50.985Z,1014.66
2019-01-21T00:18:50.942Z,1014.73
2019-01-21T00:19:50.961Z,1014.71
2019-01-21T00:20:50.889Z,1014.69
2019-01-21T00:21:50.839Z,1014.72
2019-01-21T00:22:50.827Z,1014.80
2019-01-21T00:23:50.783Z,1014.71
2019-01-21T00:24:50.732Z,1014.72
2019-01-21T00:25:50.710Z,1014.73
2019-01-21T00:26:50.670Z,1014.75
2019-01-21T00:27:50.643Z,1014.73
2019-01-21T00:28:50.626Z,1014.72
2019-01-21T00:29:50.577Z,1014.77
2019-01-21T00:30:50.693Z,1014.72
2019-01-21T00:31:50.674Z,1014.73
2019-01-21T00:32:50.710Z,1014.75
2019-01-21T00:33:50.731Z,1014.75
2019-01-21T00:34:50.731Z,1014.78
2019-01-21T00:35:50.387Z,1014.80
2019-01-21T00:36:50.332Z,1014.81
2019-01-21T00:37:50.310Z,1014.81
2019-01-21T00:38:50.286Z,1014.83
2019-01-21T00:39:50.236Z,1014.84
2019-01-21T00:40:50.211Z,1014.83
2019-01-21T00:41:50.184Z,1014.83
2019-01-21T00:42:52.205Z,1014.88
2019-01-21T00:43:50.131Z,1014.87
2019-01-21T00:50:52.516Z,1014.80
2019-01-21T00:51:50.666Z,1014.82
2019-01-21T00:52:50.636Z,1014.84
2019-01-21T00:53:50.601Z,1014.77
2019-01-21T00:54:51.155Z,1014.77
2019-01-21T00:55:50.537Z,1014.71
2019-01-21T00:56:50.504Z,1014.72
2019-01-21T00:57:50.471Z,1014.73
2019-01-21T00:58:50.433Z,1014.72
2019-01-21T00:59:50.404Z,1014.75
2019-01-21T01:00:50.367Z,1014.76
2019-01-21T01:01:50.335Z,1014.69
2019-01-21T01:02:50.303Z,1014.69
2019-01-21T01:03:50.270Z,1014.78
2019-01-21T01:04:50.236Z,1014.81
2019-01-21T01:05:50.204Z,1014.76
2019-01-21T01:06:50.163Z,1014.81
2019-01-21T01:07:50.147Z,1014.79
2019-01-21T01:08:50.102Z,1014.79
2019-01-21T01:09:50.075Z,1014.78
2019-01-21T01:10:50.028Z,1014.79
2019-01-21T01:11:50.075Z,1014.77
2019-01-21T01:12:49.967Z,1014.78
2019-01-21T01:13:49.987Z,1014.80
2019-01-21T01:14:49.906Z,1014.80
2019-01-21T01:15:49.899Z,1014.84
2019-01-21T01:16:49.837Z,1014.82
2019-01-21T01:17:49.910Z,1014.84
2019-01-21T01:18:49.769Z,1014.84
2019-01-21T01:19:49.832Z,1014.86
2019-01-21T01:20:49.707Z,1014.90
2019-01-21T01:21:49.727Z,1014.87
2019-01-21T01:22:49.637Z,1014.84
2019-01-21T01:23:49.645Z,1014.91
2019-01-21T01:24:49.568Z,1014.87
2019-01-21T01:25:49.556Z,1014.89
2019-01-21T01:26:49.495Z,1014.92
2019-01-21T01:27:49.569Z,1014.94
2019-01-21T01:28:49.428Z,1014.94
2019-01-21T01:29:49.481Z,1014.95
2019-01-21T01:30:49.360Z,1014.94
2019-01-21T01:31:49.399Z,1014.94
2019-01-21T01:32:49.307Z,1014.92
2019-01-21T01:33:49.310Z,1014.87
2019-01-21T01:34:49.230Z,1014.89
2019-01-21T01:35:49.226Z,1014.91
2019-01-21T01:36:49.171Z,1014.94
2019-01-21T01:37:49.234Z,1014.97
2019-01-21T01:38:49.100Z,1014.97
2019-01-21T01:39:49.145Z,1015.00
2019-01-21T01:40:49.030Z,1015.03
2019-01-21T01:41:51.106Z,1014.97
2019-01-21T01:42:48.969Z,1015.03
2019-01-21T01:43:49.992Z,1015.05
2019-01-21T01:44:48.897Z,1015.04
2019-01-21T01:45:48.882Z,1015.04
2019-01-21T01:46:48.834Z,1015.10
2019-01-21T01:47:49.810Z,1015.10
2019-01-21T01:48:48.756Z,1015.09
2019-01-21T01:49:48.803Z,1015.12
2019-01-21T01:50:48.696Z,1015.15
2019-01-21T01:51:49.824Z,1015.15
2019-01-21T01:52:48.627Z,1015.12
2019-01-21T01:53:48.628Z,1015.17
2019-01-21T01:54:48.570Z,1015.15
2019-01-21T01:55:48.654Z,1015.13
2019-01-21T01:56:48.503Z,1015.15
2019-01-21T01:57:48.567Z,1015.12
2019-01-21T01:58:48.431Z,1015.13
2019-01-21T01:59:48.461Z,1015.14
2019-01-21T02:00:48.362Z,1015.14
2019-01-21T02:01:48.371Z,1015.13
2019-01-21T02:02:48.298Z,1015.12
2019-01-21T02:03:55.104Z,1015.14
2019-01-21T02:04:48.228Z,1015.14
2019-01-21T02:05:48.191Z,1015.17
2019-01-21T02:06:48.165Z,1015.16
2019-01-21T02:07:48.146Z,1015.20
2019-01-21T02:08:48.092Z,1015.19
2019-01-21T02:09:48.082Z,1015.14
2019-01-21T02:10:48.026Z,1015.19
2019-01-21T02:11:47.990Z,1015.22
2019-01-21T02:12:47.973Z,1015.21
2019-01-21T02:13:48.002Z,1015.11
2019-01-21T02:14:47.899Z,1015.16
2019-01-21T02:15:47.862Z,1015.15
2019-01-21T02:16:47.929Z,1015.16
2019-01-21T02:17:52.000Z,1015.12
2019-01-21T02:18:47.757Z,1015.18
2019-01-21T02:19:47.731Z,1015.15
2019-01-21T02:20:47.682Z,1015.15
2019-01-21T02:21:47.657Z,1015.18
2019-01-21T02:22:47.624Z,1015.12
2019-01-21T02:23:47.597Z,1015.15
2019-01-21T02:24:47.559Z,1015.21
2019-01-21T02:25:47.526Z,1015.19
2019-01-21T02:26:47.497Z,1015.19
2019-01-21T02:27:47.460Z,1015.18
2019-01-21T02:28:47.488Z,1015.11
2019-01-21T02:29:47.402Z,1015.13
2019-01-21T02:30:47.354Z,1015.11
2019-01-21T02:31:47.322Z,1015.13
2019-01-21T02:32:47.294Z,1015.08
2019-01-21T02:33:47.260Z,1015.11
2019-01-21T02:34:47.238Z,1015.06
2019-01-21T02:35:47.192Z,1015.03
2019-01-21T02:36:47.173Z,1015.06
2019-01-21T02:37:47.178Z,1014.96
2019-01-21T02:38:47.106Z,1014.98
2019-01-21T02:39:47.057Z,1014.98
2019-01-21T02:40:47.018Z,1014.97
2019-01-21T02:41:46.990Z,1014.97
2019-01-21T02:42:46.965Z,1015.05
2019-01-21T02:43:46.925Z,1015.06
2019-01-21T02:44:46.904Z,1015.00
2019-01-21T02:45:46.890Z,1015.08
2019-01-21T02:46:46.842Z,1015.08
2019-01-21T02:47:46.784Z,1015.04
2019-01-21T02:48:46.752Z,1015.07
2019-01-21T02:49:46.721Z,1015.08
2019-01-21T02:50:47.710Z,1015.06
2019-01-21T02:51:46.668Z,1015.04
2019-01-21T02:52:46.633Z,1015.00
2019-01-21T02:53:46.631Z,1014.97
2019-01-21T03:23:38.895Z,1014.92
2019-01-21T03:24:37.715Z,1014.93
2019-01-21T03:26:31.149Z,1014.88
2019-01-21T03:27:31.097Z,1014.88
2019-01-21T03:28:31.058Z,1014.87
2019-01-21T03:29:31.043Z,1014.93
2019-01-21T03:30:31.010Z,1014.89
2019-01-21T03:31:30.965Z,1014.90
2019-01-21T03:32:31.041Z,1014.87
2019-01-21T03:33:30.894Z,1014.89
2019-01-21T03:34:30.937Z,1014.87
2019-01-21T03:35:30.835Z,1014.85
2019-01-21T03:36:30.801Z,1014.90
2019-01-21T03:37:30.763Z,1014.87
2019-01-21T03:38:30.735Z,1014.90
2019-01-21T03:39:30.700Z,1014.90
2019-01-21T03:40:30.655Z,1014.92
2019-01-21T03:41:30.619Z,1014.90
2019-01-21T03:42:30.589Z,1014.94
2019-01-21T03:43:30.554Z,1014.94
2019-01-21T03:44:30.542Z,1014.93
2019-01-21T03:45:30.488Z,1014.89
2019-01-21T03:46:30.456Z,1014.91
2019-01-21T03:47:30.510Z,1014.88
2019-01-21T03:48:30.384Z,1014.85
2019-01-21T03:49:30.462Z,1014.84
2019-01-21T03:50:30.317Z,1014.87
2019-01-21T03:51:30.373Z,1014.90
2019-01-21T03:52:30.252Z,1014.88
2019-01-21T03:53:30.286Z,1014.88
2019-01-21T03:54:30.249Z,1014.87
2019-01-21T03:55:30.195Z,1014.83
2019-01-21T03:56:30.116Z,1014.82
2019-01-21T03:57:30.080Z,1014.82
2019-01-21T03:58:30.054Z,1014.81
2019-01-21T03:59:30.020Z,1014.77
2019-01-21T04:00:29.982Z,1014.83
2019-01-21T04:01:29.952Z,1014.78
2019-01-21T04:02:29.917Z,1014.86
2019-01-21T04:03:29.885Z,1014.84
2019-01-21T04:04:29.845Z,1014.81
2019-01-21T04:05:29.820Z,1014.81
2019-01-21T04:06:29.777Z,1014.81
2019-01-21T04:07:29.748Z,1014.84
2019-01-21T04:08:29.708Z,1014.83
2019-01-21T04:09:30.683Z,1014.87
2019-01-21T04:10:29.655Z,1014.85
2019-01-21T04:11:29.611Z,1014.86
2019-01-21T04:12:29.572Z,1014.87
2019-01-21T04:13:29.544Z,1014.87
2019-01-21T04:14:29.503Z,1014.87
2019-01-21T04:15:29.476Z,1014.86
2019-01-21T04:16:29.440Z,1014.81
2019-01-21T04:18:07.143Z,1014.81
2019-01-21T04:18:29.377Z,1014.83
2019-01-21T04:19:29.336Z,1014.90
2019-01-21T04:20:59.142Z,1014.88
2019-01-21T04:21:29.269Z,1014.84
2019-01-21T04:22:45.197Z,1014.83
2019-01-21T04:23:29.191Z,1014.85
2019-01-21T04:38:31.921Z,1014.71
2019-01-21T04:39:16.430Z,1014.72
2019-01-21T04:40:16.394Z,1014.70
2019-01-21T04:41:16.353Z,1014.75
2019-01-21T04:42:17.379Z,1014.74
2019-01-21T04:43:16.291Z,1014.73
2019-01-21T04:44:16.265Z,1014.71
2019-01-21T04:45:16.213Z,1014.71
2019-01-21T04:46:16.186Z,1014.70
2019-01-21T04:47:16.150Z,1014.67
2019-01-21T04:48:18.135Z,1014.72
2019-01-21T04:49:16.083Z,1014.70
2019-01-21T04:50:16.049Z,1014.65
2019-01-21T04:51:16.027Z,1014.66
2019-01-21T04:52:17.023Z,1014.57
2019-01-21T04:53:15.947Z,1014.56
2019-01-21T04:54:15.921Z,1014.61
2019-01-21T04:55:15.877Z,1014.56
2019-01-21T04:56:15.849Z,1014.56
2019-01-21T04:57:15.814Z,1014.47
2019-01-21T04:58:15.799Z,1014.56
2019-01-21T04:59:15.744Z,1014.60
2019-01-21T05:00:15.715Z,1014.58
2019-01-21T05:01:15.703Z,1014.60
2019-01-21T05:02:15.651Z,1014.55
2019-01-21T05:03:15.612Z,1014.53
2019-01-21T05:04:15.595Z,1014.53
2019-01-21T05:05:15.534Z,1014.59
2019-01-21T05:06:15.511Z,1014.56
2019-01-21T05:07:15.468Z,1014.53
2019-01-21T05:08:15.438Z,1014.61
2019-01-21T05:09:15.407Z,1014.61
2019-01-21T05:10:15.379Z,1014.56
2019-01-21T05:11:15.336Z,1014.65
2019-01-21T05:12:15.302Z,1014.64
2019-01-21T05:13:15.271Z,1014.67
2019-01-21T05:14:15.246Z,1014.69
2019-01-21T05:15:15.192Z,1014.72
2019-01-21T05:16:15.173Z,1014.69
2019-01-21T05:17:15.141Z,1014.68
2019-01-21T05:18:15.102Z,1014.73
2019-01-21T05:19:15.069Z,1014.69
2019-01-21T05:20:15.036Z,1014.69
2019-01-21T05:21:14.993Z,1014.70
2019-01-21T05:22:15.977Z,1014.74
2019-01-21T05:23:14.919Z,1014.69
2019-01-21T05:24:14.916Z,1014.73
2019-01-21T05:25:14.854Z,1014.70
2019-01-21T05:26:15.842Z,1014.69
2019-01-21T05:27:14.796Z,1014.75
2019-01-21T05:28:14.759Z,1014.72
2019-01-21T05:29:14.734Z,1014.73
2019-01-21T05:30:14.708Z,1014.74
2019-01-21T05:31:14.652Z,1014.76
2019-01-21T05:32:14.642Z,1014.74
2019-01-21T05:33:14.587Z,1014.75
2019-01-21T05:34:14.563Z,1014.73
2019-01-21T05:35:14.528Z,1014.72
2019-01-21T05:36:14.489Z,1014.67
2019-01-21T05:37:14.445Z,1014.71
2019-01-21T05:38:14.425Z,1014.69
2019-01-21T05:39:14.382Z,1014.67
2019-01-21T05:40:14.346Z,1014.62
2019-01-21T05:41:14.335Z,1014.67
2019-01-21T05:42:14.300Z,1014.71
2019-01-21T05:43:14.260Z,1014.68
2019-01-21T05:44:22.953Z,1014.68
2019-01-21T05:45:14.198Z,1014.73
2019-01-21T05:46:20.929Z,1014.72
2019-01-21T05:47:14.119Z,1014.75
2019-01-21T05:48:21.946Z,1014.77
2019-01-21T05:49:14.043Z,1014.73
2019-01-21T05:50:15.028Z,1014.77
2019-01-21T05:51:13.987Z,1014.79
2019-01-21T05:52:28.928Z,1014.78
2019-01-21T05:53:13.914Z,1014.78
2019-01-21T05:55:15.201Z,1014.72
2019-01-21T05:56:13.818Z,1014.76
2019-01-21T05:57:13.789Z,1014.72
2019-01-21T05:58:22.453Z,1014.74
2019-01-21T05:59:13.701Z,1014.72
2019-01-21T06:00:15.664Z,1014.75
2019-01-21T06:01:13.648Z,1014.78
2019-01-21T06:02:14.614Z,1014.80
2019-01-21T06:03:13.564Z,1014.73
2019-01-21T06:04:13.536Z,1014.75
2019-01-21T06:05:13.495Z,1014.73
2019-01-21T06:06:13.471Z,1014.74
2019-01-21T06:07:13.443Z,1014.76
2019-01-21T06:08:13.399Z,1014.76
2019-01-21T06:09:13.389Z,1014.78
2019-01-21T06:10:13.338Z,1014.86
2019-01-21T06:11:13.432Z,1014.85
2019-01-21T06:12:21.950Z,1014.88
2019-01-21T06:13:13.223Z,1014.87
2019-01-21T06:14:14.232Z,1014.84
2019-01-21T06:15:13.153Z,1014.90
2019-01-21T06:16:14.247Z,1014.83
2019-01-21T06:17:13.092Z,1014.88
2019-01-21T06:18:13.146Z,1014.88
2019-01-21T06:19:13.013Z,1014.87
2019-01-21T06:20:13.072Z,1014.88
2019-01-21T06:21:13.011Z,1014.93
2019-01-21T06:22:13.986Z,1014.82
2019-01-21T06:23:12.880Z,1014.87
2019-01-21T06:24:27.441Z,1014.91
2019-01-21T06:25:12.815Z,1014.87
2019-01-21T06:26:12.834Z,1014.85
2019-01-21T06:27:12.764Z,1014.89
2019-01-21T06:28:12.727Z,1014.91
2019-01-21T06:29:12.669Z,1014.91
2019-01-21T06:30:12.646Z,1014.91
2019-01-21T06:31:12.603Z,1014.86
2019-01-21T06:32:12.580Z,1014.91
2019-01-21T06:33:12.541Z,1014.84
2019-01-21T06:34:12.507Z,1014.88
2019-01-21T06:35:12.473Z,1014.86
2019-01-21T06:36:12.445Z,1014.80
2019-01-21T06:37:12.408Z,1014.85
2019-01-21T06:38:12.365Z,1014.83
2019-01-21T06:39:12.333Z,1014.87
2019-01-21T06:40:12.325Z,1014.84
2019-01-21T06:41:12.297Z,1014.88
2019-01-21T06:42:12.222Z,1014.85
2019-01-21T06:43:12.202Z,1014.93
2019-01-21T06:44:12.174Z,1014.90
2019-01-21T06:45:12.188Z,1014.90
2019-01-21T06:46:12.097Z,1014.94
2019-01-21T06:47:12.064Z,1014.91
2019-01-21T06:48:12.029Z,1014.92
2019-01-21T06:49:12.032Z,1014.93
2019-01-21T06:50:11.966Z,1014.91
2019-01-21T06:51:11.953Z,1014.94
2019-01-21T06:52:11.892Z,1014.91
2019-01-21T06:53:11.906Z,1014.90
2019-01-21T06:54:11.823Z,1014.93
2019-01-21T06:55:11.803Z,1014.91
2019-01-21T06:56:11.757Z,1014.91
2019-01-21T06:57:11.725Z,1014.97
2019-01-21T06:58:11.688Z,1014.97
2019-01-21T06:59:11.662Z,1014.95
2019-01-21T07:00:11.615Z,1014.93
2019-01-21T07:01:11.609Z,1015.01
2019-01-21T07:02:11.547Z,1014.97
2019-01-21T07:03:11.522Z,1014.98
2019-01-21T07:04:11.530Z,1015.05
2019-01-21T07:05:11.501Z,1015.04
2019-01-21T07:06:11.410Z,1014.99
2019-01-21T07:07:11.378Z,1014.97
2019-01-21T07:08:11.344Z,1015.13
2019-01-21T07:09:11.312Z,1015.19
2019-01-21T07:10:11.271Z,1015.19
2019-01-21T07:11:11.246Z,1015.20
2019-01-21T07:12:11.207Z,1015.23
2019-01-21T07:13:12.196Z,1015.22
2019-01-21T07:14:11.136Z,1015.17
2019-01-21T07:15:11.105Z,1015.14
2019-01-21T07:16:11.066Z,1015.14
2019-01-21T07:17:11.042Z,1015.15
2019-01-21T07:18:11.087Z,1015.17
2019-01-21T07:19:11.193Z,1015.16
2019-01-21T07:20:10.943Z,1015.14
2019-01-21T07:21:10.897Z,1015.14
2019-01-21T07:22:10.863Z,1015.17
2019-01-21T07:23:10.835Z,1015.16
2019-01-21T07:24:10.801Z,1015.12
2019-01-21T07:25:10.760Z,1015.15
2019-01-21T07:26:10.730Z,1015.21
2019-01-21T07:27:10.693Z,1015.22
2019-01-21T07:28:10.662Z,1015.23
2019-01-21T07:29:10.625Z,1015.25
2019-01-21T07:30:11.703Z,1015.24
2019-01-21T07:31:10.555Z,1015.26
2019-01-21T07:32:10.567Z,1015.23
2019-01-21T07:33:10.484Z,1015.25
2019-01-21T07:34:10.459Z,1015.29
2019-01-21T07:35:10.421Z,1015.33
2019-01-21T07:36:10.386Z,1015.32
2019-01-21T07:37:10.349Z,1015.32
2019-01-21T07:38:10.333Z,1015.38
2019-01-21T07:39:10.276Z,1015.41
2019-01-21T07:40:10.258Z,1015.35
2019-01-21T07:41:10.213Z,1015.35
2019-01-21T07:42:10.179Z,1015.37
2019-01-21T07:43:10.140Z,1015.33
2019-01-21T07:44:10.109Z,1015.28
2019-01-21T07:45:10.084Z,1015.34
2019-01-21T07:46:10.040Z,1015.35
2019-01-21T07:47:10.011Z,1015.38
2019-01-21T07:48:09.984Z,1015.31
2019-01-21T07:49:09.962Z,1015.33
2019-01-21T07:50:09.922Z,1015.33
2019-01-21T07:51:09.871Z,1015.32
2019-01-21T07:52:10.853Z,1015.27
2019-01-21T07:53:09.830Z,1015.32
2019-01-21T07:54:09.794Z,1015.33
2019-01-21T07:55:09.746Z,1015.35
2019-01-21T07:56:09.700Z,1015.36
2019-01-21T07:57:09.683Z,1015.34
2019-01-21T07:58:10.659Z,1015.31
2019-01-21T07:59:09.651Z,1015.38
2019-01-21T08:00:09.569Z,1015.42
2019-01-21T08:01:10.238Z,1015.48
2019-01-21T08:02:09.534Z,1015.44
2019-01-21T08:03:09.452Z,1015.51
2019-01-21T08:04:09.435Z,1015.51
2019-01-21T08:05:09.415Z,1015.52
2019-01-21T08:06:09.381Z,1015.55
2019-01-21T08:07:09.318Z,1015.54
2019-01-21T08:08:09.294Z,1015.54
2019-01-21T08:09:09.271Z,1015.56
2019-01-21T08:10:09.263Z,1015.59
2019-01-21T08:11:09.191Z,1015.60
2019-01-21T08:12:09.156Z,1015.63
2019-01-21T08:13:09.147Z,1015.61
2019-01-21T08:14:10.100Z,1015.67
2019-01-21T08:15:09.066Z,1015.64
2019-01-21T08:16:09.023Z,1015.66
2019-01-21T08:17:09.005Z,1015.62
2019-01-21T08:18:08.983Z,1015.65
2019-01-21T08:19:08.918Z,1015.59
2019-01-21T08:20:08.898Z,1015.64
2019-01-21T08:21:08.883Z,1015.65
2019-01-21T08:22:08.824Z,1015.67
2019-01-21T08:23:08.824Z,1015.68
2019-01-21T08:24:08.792Z,1015.74
2019-01-21T08:25:08.772Z,1015.68
2019-01-21T08:26:09.719Z,1015.78
2019-01-21T08:27:08.666Z,1015.71
2019-01-21T08:28:08.659Z,1015.74
2019-01-21T08:29:08.597Z,1015.75
2019-01-21T08:30:08.555Z,1015.74
2019-01-21T08:31:08.520Z,1015.69
2019-01-21T08:32:08.467Z,1015.66
2019-01-21T08:33:08.437Z,1015.62
2019-01-21T08:34:08.406Z,1015.60
2019-01-21T08:35:08.421Z,1015.58
2019-01-21T08:36:10.381Z,1015.57
2019-01-21T08:37:08.331Z,1015.49
2019-01-21T08:38:08.293Z,1015.60
2019-01-21T08:39:08.241Z,1015.61
2019-01-21T08:40:09.239Z,1015.59
2019-01-21T08:41:08.175Z,1015.59
2019-01-21T08:42:08.179Z,1015.56
2019-01-21T08:43:08.126Z,1015.55
2019-01-21T08:44:08.061Z,1015.51
2019-01-21T08:45:08.023Z,1015.60
2019-01-21T08:46:08.034Z,1015.55
2019-01-21T08:47:07.954Z,1015.57
2019-01-21T08:48:07.967Z,1015.56
2019-01-21T08:49:07.909Z,1015.58
2019-01-21T08:50:07.864Z,1015.63
2019-01-21T08:51:07.811Z,1015.60
2019-01-21T08:52:07.792Z,1015.64
2019-01-21T08:53:07.752Z,1015.62
2019-01-21T08:54:07.707Z,1015.64
2019-01-21T08:55:07.704Z,1015.68
2019-01-21T08:56:07.666Z,1015.73
2019-01-21T08:57:07.617Z,1015.73
2019-01-21T08:58:07.599Z,1015.73
2019-01-21T08:59:07.535Z,1015.70
2019-01-21T09:00:07.538Z,1015.71
2019-01-21T09:01:07.641Z,1015.73
2019-01-21T09:02:07.445Z,1015.75
2019-01-21T09:03:07.410Z,1015.71
2019-01-21T09:04:07.362Z,1015.70
2019-01-21T09:05:07.424Z,1015.71
2019-01-21T09:06:07.299Z,1015.71
2019-01-21T09:07:08.348Z,1015.75
2019-01-21T09:08:07.226Z,1015.75
2019-01-21T09:09:07.236Z,1015.75
2019-01-21T09:10:07.959Z,1015.74
2019-01-21T09:11:07.261Z,1015.76
2019-01-21T09:12:07.088Z,1015.79
2019-01-21T09:13:07.172Z,1015.79
2019-01-21T09:14:07.037Z,1015.75
2019-01-21T09:15:08.093Z,1015.78
2019-01-21T09:16:06.959Z,1015.68
2019-01-21T09:17:08.038Z,1015.79
2019-01-21T09:18:06.885Z,1015.78
2019-01-21T09:19:06.889Z,1015.78
2019-01-21T09:20:10.602Z,1015.77
2019-01-21T09:21:07.821Z,1015.74
2019-01-21T09:22:06.742Z,1015.74
2019-01-21T09:23:06.800Z,1015.68
2019-01-21T09:24:06.675Z,1015.69
2019-01-21T09:25:06.722Z,1015.66
2019-01-21T09:26:06.626Z,1015.65
2019-01-21T09:27:06.572Z,1015.68
2019-01-21T09:28:06.539Z,1015.69
2019-01-21T09:29:06.505Z,1015.69
2019-01-21T09:30:06.528Z,1015.67
2019-01-21T09:31:06.448Z,1015.64
2019-01-21T09:32:06.431Z,1015.67
2019-01-21T09:33:06.407Z,1015.62
2019-01-21T09:34:06.357Z,1015.67
2019-01-21T09:35:06.327Z,1015.53
2019-01-21T09:36:06.268Z,1015.61
2019-01-21T09:37:06.307Z,1015.49
2019-01-21T09:38:06.208Z,1015.56
2019-01-21T09:39:06.164Z,1015.57
2019-01-21T09:40:06.171Z,1015.59
2019-01-21T09:41:06.098Z,1015.55
2019-01-21T09:42:06.064Z,1015.59
2019-01-21T09:43:06.151Z,1015.48
2019-01-21T09:44:06.002Z,1015.51
2019-01-21T09:45:06.047Z,1015.51
2019-01-21T09:46:05.940Z,1015.51
2019-01-21T09:47:05.994Z,1015.55
2019-01-21T09:48:05.870Z,1015.58
2019-01-21T09:49:05.825Z,1015.60
2019-01-21T09:50:05.802Z,1015.65
2019-01-21T09:51:05.780Z,1015.60
2019-01-21T09:52:05.746Z,1015.54
2019-01-21T09:53:05.704Z,1015.64
2019-01-21T09:54:05.656Z,1015.61
2019-01-21T09:55:05.708Z,1015.62
2019-01-21T09:56:05.596Z,1015.62
2019-01-21T09:57:05.561Z,1015.65
2019-01-21T09:58:05.523Z,1015.65
2019-01-21T09:59:05.484Z,1015.65
2019-01-21T10:00:05.483Z,1015.62
2019-01-21T10:01:05.409Z,1015.66
2019-01-21T10:02:05.382Z,1015.67
2019-01-21T10:03:05.445Z,1015.62
2019-01-21T10:04:05.313Z,1015.58
2019-01-21T10:05:05.374Z,1015.51
2019-01-21T10:06:05.249Z,1015.51
2019-01-21T10:07:05.208Z,1015.50
2019-01-21T10:08:05.194Z,1015.51
2019-01-21T10:09:05.150Z,1015.46
2019-01-21T10:10:05.107Z,1015.43
2019-01-21T10:11:05.089Z,1015.45
2019-01-21T10:12:05.047Z,1015.43
2019-01-21T10:13:05.006Z,1015.44
2019-01-21T10:14:04.976Z,1015.39
2019-01-21T10:15:04.967Z,1015.38
2019-01-21T10:16:04.909Z,1015.37
2019-01-21T10:17:04.868Z,1015.36
2019-01-21T10:18:04.849Z,1015.37
2019-01-21T10:19:04.848Z,1015.38
2019-01-21T10:20:04.760Z,1015.39
2019-01-21T10:21:04.757Z,1015.36
2019-01-21T10:22:04.715Z,1015.32
2019-01-21T10:23:04.777Z,1015.35
2019-01-21T10:24:04.632Z,1015.31
2019-01-21T10:25:04.611Z,1015.34
2019-01-21T10:26:04.667Z,1015.30
2019-01-21T10:27:04.529Z,1015.28
2019-01-21T10:28:04.585Z,1015.29
2019-01-21T10:29:04.517Z,1015.29
2019-01-21T10:30:04.489Z,1015.27
2019-01-21T10:31:04.403Z,1015.30
2019-01-21T10:32:05.426Z,1015.31
2019-01-21T10:33:04.333Z,1015.34
2019-01-21T10:34:04.300Z,1015.33
2019-01-21T10:35:04.264Z,1015.30
2019-01-21T10:36:04.229Z,1015.27
2019-01-21T10:37:04.224Z,1015.28
2019-01-21T10:38:04.160Z,1015.27
2019-01-21T10:39:21.028Z,1015.20
2019-01-21T10:40:07.855Z,1015.17
2019-01-21T10:41:04.139Z,1015.21
2019-01-21T10:42:04.022Z,1015.24
2019-01-21T10:43:12.028Z,1015.24
2019-01-21T10:44:03.960Z,1015.25
2019-01-21T10:46:03.892Z,1015.22
2019-01-21T10:47:19.539Z,1015.19
2019-01-21T10:48:03.825Z,1015.14
2019-01-21T10:49:11.566Z,1015.14
2019-01-21T10:50:03.750Z,1015.11
2019-01-21T10:52:03.700Z,1015.08
2019-01-21T10:53:12.517Z,1015.00
2019-01-21T10:54:03.624Z,1015.02
2019-01-21T10:56:03.573Z,1014.99
2019-01-21T10:57:03.522Z,1014.99
2019-01-21T10:58:24.484Z,1014.99
2019-01-21T10:59:03.490Z,1015.03
2019-01-21T11:13:27.769Z,1014.97
2019-01-21T11:14:12.510Z,1014.95
2019-01-21T11:15:10.718Z,1014.94
2019-01-21T11:16:10.608Z,1015.01
2019-01-21T11:17:10.619Z,1015.03
2019-01-21T11:18:10.530Z,1015.04
2019-01-21T11:19:21.973Z,1015.01
2019-01-21T11:20:10.449Z,1015.00
2019-01-21T11:21:12.516Z,1014.96
2019-01-21T11:22:10.387Z,1015.00
2019-01-21T11:24:10.325Z,1014.92
2019-01-21T11:25:10.290Z,1014.89
2019-01-21T11:26:25.807Z,1014.88
2019-01-21T11:27:10.232Z,1014.89
2019-01-21T11:28:10.264Z,1014.91
2019-01-21T11:29:10.150Z,1014.86
2019-01-21T11:30:17.853Z,1014.89
2019-01-21T11:31:10.094Z,1014.83
2019-01-21T11:32:11.115Z,1014.78
2019-01-21T11:33:10.028Z,1014.73
2019-01-21T11:34:37.846Z,1014.82
2019-01-21T11:35:09.946Z,1014.74
2019-01-21T11:36:30.921Z,1014.72
2019-01-21T11:37:09.888Z,1014.70
2019-01-21T11:38:10.939Z,1014.66
2019-01-21T11:39:09.817Z,1014.63
2019-01-21T11:40:16.791Z,1014.63
2019-01-21T11:41:09.765Z,1014.63
2019-01-21T11:42:09.738Z,1014.69
2019-01-21T11:43:09.684Z,1014.74
2019-01-21T11:44:24.293Z,1014.72
2019-01-21T11:45:09.618Z,1014.69
2019-01-21T11:46:09.660Z,1014.72
2019-01-21T11:47:09.553Z,1014.68
2019-01-21T11:48:16.327Z,1014.69
2019-01-21T11:49:09.492Z,1014.68
2019-01-21T11:50:16.375Z,1014.63
2019-01-21T11:51:09.418Z,1014.65
2019-01-21T11:52:09.442Z,1014.61
2019-01-21T11:53:09.345Z,1014.56
2019-01-21T11:54:09.338Z,1014.51
2019-01-21T11:55:09.359Z,1014.58
2019-01-21T11:56:09.263Z,1014.55
2019-01-21T11:57:09.286Z,1014.57
2019-01-21T11:58:09.194Z,1014.54
2019-01-21T11:59:09.200Z,1014.53
2019-01-21T12:00:09.128Z,1014.52
2019-01-21T12:01:10.119Z,1014.48
2019-01-21T12:02:09.075Z,1014.48
2019-01-21T12:03:09.019Z,1014.44
2019-01-21T12:04:11.062Z,1014.46
2019-01-21T12:05:08.977Z,1014.48
2019-01-21T12:06:09.032Z,1014.42
2019-01-21T12:07:08.908Z,1014.41
2019-01-21T12:08:08.860Z,1014.41
2019-01-21T12:09:08.861Z,1014.42
2019-01-21T12:10:08.806Z,1014.35
2019-01-21T12:11:08.764Z,1014.36
2019-01-21T12:12:08.738Z,1014.46
2019-01-21T12:13:08.707Z,1014.42
2019-01-21T12:14:08.675Z,1014.39
2019-01-21T12:15:08.635Z,1014.41
2019-01-21T12:16:08.620Z,1014.40
2019-01-21T12:17:08.609Z,1014.39
2019-01-21T12:18:08.632Z,1014.35
2019-01-21T12:19:08.513Z,1014.35
2019-01-21T12:20:08.480Z,1014.29
2019-01-21T12:21:08.438Z,1014.26
2019-01-21T12:22:08.405Z,1014.25
2019-01-21T12:23:08.364Z,1014.25
2019-01-21T12:24:08.326Z,1014.18
2019-01-21T12:25:08.417Z,1014.16
2019-01-21T12:26:08.270Z,1014.11
2019-01-21T12:27:08.238Z,1014.16
2019-01-21T12:28:08.330Z,1014.09
2019-01-21T12:29:08.182Z,1014.13
2019-01-21T12:30:08.273Z,1014.11
2019-01-21T12:31:08.123Z,1014.10
2019-01-21T12:32:08.093Z,1014.08
2019-01-21T12:33:08.066Z,1014.10
2019-01-21T12:34:08.070Z,1014.07
2019-01-21T12:35:07.986Z,1014.05
2019-01-21T12:36:07.947Z,1014.04
2019-01-21T12:37:07.904Z,1014.08
2019-01-21T12:38:09.144Z,1014.05
2019-01-21T12:39:07.879Z,1014.13
2019-01-21T12:40:07.827Z,1014.09
2019-01-21T12:41:08.830Z,1014.11
2019-01-21T12:42:07.742Z,1014.13
2019-01-21T12:43:14.390Z,1014.08
2019-01-21T12:44:07.695Z,1014.06
2019-01-21T12:45:09.766Z,1014.11
2019-01-21T12:46:07.625Z,1014.03
2019-01-21T12:47:07.681Z,1014.10
2019-01-21T12:48:07.577Z,1014.08
2019-01-21T12:49:07.559Z,1014.04
2019-01-21T12:50:07.522Z,1014.07
2019-01-21T12:51:22.296Z,1014.07
2019-01-21T12:52:07.488Z,1014.07
2019-01-21T12:53:07.481Z,1014.09
2019-01-21T12:54:07.413Z,1014.05
2019-01-21T12:55:09.431Z,1014.00
2019-01-21T12:56:07.299Z,1014.03
2019-01-21T12:57:07.348Z,1013.98
2019-01-21T12:58:07.253Z,1014.01
2019-01-21T12:59:16.049Z,1014.03
2019-01-21T13:00:07.151Z,1014.03
2019-01-21T13:01:08.233Z,1014.00
2019-01-21T13:02:07.158Z,1014.03
2019-01-21T13:03:08.185Z,1014.08
2019-01-21T13:04:07.015Z,1014.03
2019-01-21T13:05:09.113Z,1014.03
2019-01-21T13:06:06.958Z,1014.02
2019-01-21T13:07:06.968Z,1014.00
2019-01-21T13:08:06.888Z,1014.03
2019-01-21T13:09:14.866Z,1014.02
2019-01-21T13:10:06.834Z,1013.99
2019-01-21T13:11:06.864Z,1013.93
2019-01-21T13:12:06.762Z,1013.94
2019-01-21T13:13:06.777Z,1013.92